Time;durP1;ratioP1;P1;durP2;ratioP2;P2;SDS_P1;SDS_P2;PMS_P1;PMS_P2;Temp;Humidity;BMP_temperature;BMP_pressure;BME280_temperature;BME280_humidity;BME280_pressure;Samples;Min_cycle;Max_cycle;Signal;HPM_P1;HPM_P2
2023/01/12 00:01:24;;;;;;;;;;;23.50;99.90;;;;;;5012559;28;19980;-64
2023/01/12 00:03:51;;;;;;;;;;;23.60;99.90;;;;;;5012819;28;19913;-64
2023/01/12 00:06:20;;;;;;;;;;;23.60;99.90;;;;;;5012534;28;19964;-65
2023/01/12 00:08:47;;;;;;;;;;;23.60;99.90;;;;;;5012860;28;19914;-69
2023/01/12 00:11:14;;;;;;;;;;;23.60;99.90;;;;;;5012716;28;19963;-67
2023/01/12 00:13:41;;;;;;;;;;;23.70;99.90;;;;;;5012615;28;19921;-64
2023/01/12 00:16:34;;;;;;;;;;;23.70;99.90;;;;;;5012522;28;20327;-66
2023/01/12 00:19:01;;;;;;;;;;;23.70;99.90;;;;;;5012971;28;19967;-65
2023/01/12 00:21:31;;;;;;;;;;;23.70;99.90;;;;;;5012659;28;20013;-64
2023/01/12 00:23:58;;;;;;;;;;;23.80;99.90;;;;;;5012705;28;19920;-64
2023/01/12 00:26:25;;;;;;;;;;;23.70;99.90;;;;;;5012551;28;19956;-65
2023/01/12 00:28:51;;;;;;;;;;;23.70;99.90;;;;;;5012521;28;19909;-64
2023/01/12 00:31:18;;;;;;;;;;;23.70;99.90;;;;;;5012530;28;19924;-64
2023/01/12 00:33:44;;;;;;;;;;;23.70;99.90;;;;;;5012769;28;20003;-64
2023/01/12 00:36:12;;;;;;;;;;;23.70;99.90;;;;;;5014473;28;19921;-65
2023/01/12 00:38:39;;;;;;;;;;;23.70;99.90;;;;;;5016033;28;20001;-67
2023/01/12 00:41:06;;;;;;;;;;;23.80;99.90;;;;;;5015951;28;20350;-64
2023/01/12 00:46:18;;;;;;;;;;;23.70;99.90;;;;;;5016125;28;19932;-65
2023/01/12 00:48:44;;;;;;;;;;;23.70;99.90;;;;;;5016016;28;20292;-63
2023/01/12 00:51:12;;;;;;;;;;;23.60;99.90;;;;;;5015738;28;20012;-66
2023/01/12 00:53:39;;;;;;;;;;;23.50;99.90;;;;;;5015850;28;20001;-65
2023/01/12 00:56:06;;;;;;;;;;;23.40;99.90;;;;;;5015423;28;20449;-66
2023/01/12 00:58:32;;;;;;;;;;;23.40;99.90;;;;;;5015759;28;19909;-66
2023/01/12 01:01:08;;;;;;;;;;;23.40;99.90;;;;;;5015756;28;19922;-65
2023/01/12 01:03:35;;;;;;;;;;;23.50;99.90;;;;;;5015574;28;19969;-63
2023/01/12 01:06:06;;;;;;;;;;;23.30;99.90;;;;;;5015398;28;19910;-64
2023/01/12 01:08:35;;;;;;;;;;;23.30;99.90;;;;;;5015601;28;19916;-63
2023/01/12 01:11:02;;;;;;;;;;;23.40;99.90;;;;;;5015582;28;19909;-64
2023/01/12 01:13:29;;;;;;;;;;;23.40;99.90;;;;;;5015283;28;19910;-63
2023/01/12 01:15:59;;;;;;;;;;;23.40;99.90;;;;;;5015038;28;19993;-64
2023/01/12 01:18:27;;;;;;;;;;;23.40;99.90;;;;;;5015465;28;19933;-65
2023/01/12 01:20:54;;;;;;;;;;;23.50;99.90;;;;;;5015153;28;19920;-65
2023/01/12 01:23:22;;;;;;;;;;;23.50;99.90;;;;;;5015255;28;19930;-65
2023/01/12 01:25:49;;;;;;;;;;;23.60;99.90;;;;;;5014912;28;19916;-65
2023/01/12 01:28:16;;;;;;;;;;;23.70;99.90;;;;;;5015166;28;19909;-65
2023/01/12 01:30:43;;;;;;;;;;;23.60;99.90;;;;;;5015305;28;19916;-64
2023/01/12 01:33:10;;;;;;;;;;;23.60;99.90;;;;;;5015185;28;19909;-66
2023/01/12 01:35:36;;;;;;;;;;;23.70;99.90;;;;;;5014651;28;19916;-65
2023/01/12 01:38:03;;;;;;;;;;;23.80;99.90;;;;;;5014594;28;19980;-67
2023/01/12 01:40:30;;;;;;;;;;;23.90;99.90;;;;;;5014813;28;20272;-64
2023/01/12 01:42:57;;;;;;;;;;;24.00;99.90;;;;;;5014799;28;20000;-63
2023/01/12 01:45:24;;;;;;;;;;;24.20;99.90;;;;;;5014369;28;20387;-64
2023/01/12 01:47:57;;;;;;;;;;;24.30;99.90;;;;;;5014188;28;19953;-64
2023/01/12 01:50:27;;;;;;;;;;;24.70;99.90;;;;;;5014667;28;19910;-64
2023/01/12 01:52:56;;;;;;;;;;;25.10;99.90;;;;;;5014507;28;20349;-63
2023/01/12 01:55:25;;;;;;;;;;;25.10;99.90;;;;;;5014356;28;19913;-67
2023/01/12 01:57:57;;;;;;;;;;;25.00;99.90;;;;;;5014490;28;19917;-64
2023/01/12 02:00:24;;;;;;;;;;;25.10;99.90;;;;;;5014516;28;20280;-63
2023/01/12 02:02:51;;;;;;;;;;;25.30;99.90;;;;;;5014433;28;20361;-64
2023/01/12 02:05:20;;;;;;;;;;;25.30;99.90;;;;;;5013985;28;19909;-64
2023/01/12 02:07:48;;;;;;;;;;;25.40;99.90;;;;;;5014398;28;19910;-64
2023/01/12 02:10:15;;;;;;;;;;;25.50;99.90;;;;;;5014656;28;20357;-65
2023/01/12 02:18:18;;;;;;;;;;;25.80;99.90;;;;;;5014321;28;20276;-64
2023/01/12 02:20:52;;;;;;;;;;;25.60;99.90;;;;;;5013983;28;20359;-65
2023/01/12 02:23:32;;;;;;;;;;;25.60;99.90;;;;;;5014130;28;19913;-64
2023/01/12 02:26:05;;;;;;;;;;;25.60;99.90;;;;;;5013991;28;19910;-63
2023/01/12 02:28:44;;;;;;;;;;;25.60;99.90;;;;;;5014040;28;20325;-70
2023/01/12 02:31:21;;;;;;;;;;;25.70;99.90;;;;;;5014167;28;19910;-65
2023/01/12 02:34:04;;;;;;;;;;;25.70;99.90;;;;;;5014406;28;19955;-72
2023/01/12 02:36:33;;;;;;;;;;;25.70;99.90;;;;;;5013329;28;20079;-66
2023/01/12 02:39:06;;;;;;;;;;;25.70;99.90;;;;;;5013649;28;19992;-64
2023/01/12 02:44:27;;;;;;;;;;;25.50;99.90;;;;;;5013993;28;20410;-68
2023/01/12 02:46:56;;;;;;;;;;;25.40;99.90;;;;;;5013328;28;20004;-64
2023/01/12 02:49:25;;;;;;;;;;;25.40;99.90;;;;;;5013481;28;19910;-64
2023/01/12 02:51:57;;;;;;;;;;;25.40;99.90;;;;;;5013716;28;19975;-65
2023/01/12 02:54:24;;;;;;;;;;;25.40;99.90;;;;;;5013804;28;19917;-64
2023/01/12 02:57:01;;;;;;;;;;;25.50;99.90;;;;;;5013095;28;19910;-67
2023/01/12 02:59:29;;;;;;;;;;;25.50;99.90;;;;;;5013277;28;19917;-67
2023/01/12 03:01:58;;;;;;;;;;;25.50;99.90;;;;;;5013578;28;19917;-64
2023/01/12 03:04:27;;;;;;;;;;;25.40;99.90;;;;;;5013457;28;20026;-64
2023/01/12 03:06:56;;;;;;;;;;;25.30;99.90;;;;;;5013196;28;19910;-68
2023/01/12 03:09:32;;;;;;;;;;;25.20;99.90;;;;;;5013445;28;20368;-65
2023/01/12 03:12:01;;;;;;;;;;;25.30;99.90;;;;;;5013472;28;20356;-64
2023/01/12 03:14:29;;;;;;;;;;;25.40;99.90;;;;;;5013530;28;19932;-64
2023/01/12 03:16:56;;;;;;;;;;;25.40;99.90;;;;;;5012987;28;20955;-66
2023/01/12 03:19:27;;;;;;;;;;;25.50;99.90;;;;;;5012085;28;19921;-66
2023/01/12 03:21:59;;;;;;;;;;;25.40;99.90;;;;;;5013320;28;19917;-64
2023/01/12 03:24:28;;;;;;;;;;;25.30;99.90;;;;;;5013487;28;19916;-64
2023/01/12 03:26:59;;;;;;;;;;;25.20;99.90;;;;;;5012983;28;19957;-63
2023/01/12 03:29:45;;;;;;;;;;;25.30;99.90;;;;;;5013012;28;19916;-65
2023/01/12 03:32:12;;;;;;;;;;;25.50;99.90;;;;;;5013307;28;19909;-63
2023/01/12 03:34:39;;;;;;;;;;;25.70;99.90;;;;;;5013086;28;19910;-64
2023/01/12 03:37:11;;;;;;;;;;;25.70;99.90;;;;;;5012641;28;19996;-66
2023/01/12 03:39:50;;;;;;;;;;;25.60;99.90;;;;;;5013107;28;19909;-64
2023/01/12 03:42:25;;;;;;;;;;;25.50;99.90;;;;;;5012946;28;20008;-64
2023/01/12 03:45:08;;;;;;;;;;;25.40;99.90;;;;;;5013072;28;19983;-65
2023/01/12 03:47:35;;;;;;;;;;;25.20;99.90;;;;;;5012931;28;19916;-65
2023/01/12 03:50:07;;;;;;;;;;;25.20;99.90;;;;;;5013135;28;19913;-64
2023/01/12 03:52:35;;;;;;;;;;;25.20;99.90;;;;;;5013058;28;19925;-64
2023/01/12 03:55:02;;;;;;;;;;;25.10;99.90;;;;;;5013079;28;19918;-65
2023/01/12 03:57:29;;;;;;;;;;;25.10;99.90;;;;;;5012564;28;19914;-64
2023/01/12 03:59:56;;;;;;;;;;;25.00;99.90;;;;;;5013143;28;20009;-65
2023/01/12 04:02:22;;;;;;;;;;;25.00;99.90;;;;;;5013127;28;19925;-64
2023/01/12 04:04:50;;;;;;;;;;;25.00;99.90;;;;;;5013700;28;19914;-64
2023/01/12 04:07:17;;;;;;;;;;;25.00;99.90;;;;;;5012376;28;19960;-64
2023/01/12 04:09:43;;;;;;;;;;;25.00;99.90;;;;;;5013322;28;19913;-65
2023/01/12 04:12:10;;;;;;;;;;;25.00;99.90;;;;;;5016604;28;19971;-65
2023/01/12 04:14:41;;;;;;;;;;;25.00;99.90;;;;;;5016809;28;19909;-66
2023/01/12 04:17:08;;;;;;;;;;;25.10;99.90;;;;;;5016294;28;19980;-64
2023/01/12 04:19:35;;;;;;;;;;;25.40;99.90;;;;;;5016535;28;19910;-64
2023/01/12 04:24:47;;;;;;;;;;;25.40;99.90;;;;;;5016642;28;19917;-66
2023/01/12 04:27:14;;;;;;;;;;;25.20;99.90;;;;;;5015772;28;19910;-64
2023/01/12 04:29:41;;;;;;;;;;;25.20;99.90;;;;;;5016421;28;19920;-64
2023/01/12 04:32:08;;;;;;;;;;;25.30;99.90;;;;;;5016554;28;19929;-64
2023/01/12 04:34:34;;;;;;;;;;;25.30;99.90;;;;;;5016227;28;19909;-64
2023/01/12 04:37:01;;;;;;;;;;;25.40;99.90;;;;;;5015714;28;19921;-66
2023/01/12 04:39:28;;;;;;;;;;;25.30;99.90;;;;;;5015993;28;20335;-70
2023/01/12 04:41:55;;;;;;;;;;;25.40;99.90;;;;;;5015819;28;19918;-65
2023/01/12 04:44:21;;;;;;;;;;;25.30;99.90;;;;;;5016066;28;19914;-64
2023/01/12 04:46:49;;;;;;;;;;;25.00;99.90;;;;;;5015906;28;19917;-65
2023/01/12 04:49:16;;;;;;;;;;;24.90;99.90;;;;;;5015759;28;20012;-64
2023/01/12 04:51:43;;;;;;;;;;;24.80;99.90;;;;;;5015932;28;19917;-63
2023/01/12 04:54:10;;;;;;;;;;;24.70;99.90;;;;;;5015797;28;19917;-64
2023/01/12 04:56:36;;;;;;;;;;;24.60;99.90;;;;;;5015415;28;19910;-66
2023/01/12 04:59:05;;;;;;;;;;;24.70;99.90;;;;;;5015726;28;19916;-64
2023/01/12 05:01:32;;;;;;;;;;;24.80;99.90;;;;;;5015480;28;19968;-64
2023/01/12 05:04:02;;;;;;;;;;;25.00;99.90;;;;;;5015742;28;19910;-65
2023/01/12 05:06:28;;;;;;;;;;;25.20;99.90;;;;;;5015433;28;19956;-65
2023/01/12 05:11:40;;;;;;;;;;;25.00;99.90;;;;;;5015619;28;19917;-64
2023/01/12 05:14:06;;;;;;;;;;;25.00;99.90;;;;;;5015572;28;20406;-64
2023/01/12 05:16:33;;;;;;;;;;;24.90;99.90;;;;;;5015407;28;19910;-64
2023/01/12 05:19:00;;;;;;;;;;;25.00;99.90;;;;;;5015612;28;20067;-65
2023/01/12 05:21:27;;;;;;;;;;;25.00;99.90;;;;;;5014208;28;20011;-64
2023/01/12 05:23:53;;;;;;;;;;;24.90;99.90;;;;;;5015168;28;19916;-64
2023/01/12 05:26:20;;;;;;;;;;;24.60;99.90;;;;;;5014721;28;19909;-64
2023/01/12 05:28:48;;;;;;;;;;;24.50;99.90;;;;;;5015165;28;20002;-64
2023/01/12 05:31:15;;;;;;;;;;;24.60;99.90;;;;;;5015046;28;19910;-64
2023/01/12 05:33:42;;;;;;;;;;;24.60;99.90;;;;;;5015121;28;20001;-67
2023/01/12 05:36:10;;;;;;;;;;;24.60;99.90;;;;;;5014651;28;20356;-64
2023/01/12 05:38:37;;;;;;;;;;;24.60;99.90;;;;;;5014947;28;20000;-64
2023/01/12 05:41:06;;;;;;;;;;;24.50;99.90;;;;;;5014728;28;20004;-68
2023/01/12 05:43:50;;;;;;;;;;;24.50;99.90;;;;;;5014717;28;19909;-76
2023/01/12 05:46:22;;;;;;;;;;;24.50;99.90;;;;;;5014520;28;20517;-67
2023/01/12 05:48:48;;;;;;;;;;;24.50;99.90;;;;;;5014687;28;20000;-64
2023/01/12 05:51:15;;;;;;;;;;;24.50;99.90;;;;;;5012938;28;19968;-64
2023/01/12 05:53:42;;;;;;;;;;;24.60;99.90;;;;;;5012657;28;20422;-66
2023/01/12 05:56:17;;;;;;;;;;;24.60;99.90;;;;;;5012413;28;19949;-67
2023/01/12 05:58:48;;;;;;;;;;;24.40;99.90;;;;;;5012603;28;19909;-63
2023/01/12 06:01:15;;;;;;;;;;;24.20;99.90;;;;;;5012527;28;19949;-65
2023/01/12 06:03:41;;;;;;;;;;;24.10;99.90;;;;;;5012140;28;19940;-69
2023/01/12 06:06:08;;;;;;;;;;;24.20;99.90;;;;;;5011754;28;19910;-64
2023/01/12 06:08:35;;;;;;;;;;;24.20;99.90;;;;;;5012352;28;19909;-65
2023/01/12 06:11:02;;;;;;;;;;;24.30;99.90;;;;;;5012260;28;19913;-65
2023/01/12 06:16:13;;;;;;;;;;;24.30;99.90;;;;;;5012041;28;20395;-64
2023/01/12 06:18:40;;;;;;;;;;;24.20;99.90;;;;;;5011910;28;19914;-64
2023/01/12 06:21:07;;;;;;;;;;;24.20;99.90;;;;;;5012174;28;19917;-65
2023/01/12 06:23:34;;;;;;;;;;;24.10;99.90;;;;;;5012139;28;20361;-69
2023/01/12 06:26:01;;;;;;;;;;;24.10;99.90;;;;;;5011673;28;20442;-65
2023/01/12 06:28:28;;;;;;;;;;;24.10;99.90;;;;;;5011977;28;19921;-65
2023/01/12 06:30:56;;;;;;;;;;;24.20;99.90;;;;;;5011684;28;19913;-65
2023/01/12 06:33:23;;;;;;;;;;;24.00;99.90;;;;;;5011387;28;20331;-65
2023/01/12 06:35:50;;;;;;;;;;;24.00;99.90;;;;;;5011671;28;19920;-65
2023/01/12 06:38:17;;;;;;;;;;;23.90;99.90;;;;;;5011999;28;19928;-65
2023/01/12 06:40:43;;;;;;;;;;;23.90;99.90;;;;;;5011577;28;19928;-64
2023/01/12 06:43:10;;;;;;;;;;;23.70;99.90;;;;;;5011576;28;19918;-64
2023/01/12 06:45:36;;;;;;;;;;;23.60;99.90;;;;;;5011309;28;20184;-66
2023/01/12 06:48:03;;;;;;;;;;;23.60;99.90;;;;;;5011713;28;19955;-67
2023/01/12 06:50:31;;;;;;;;;;;23.60;99.90;;;;;;5011739;28;19917;-69
2023/01/12 06:53:02;;;;;;;;;;;23.50;99.90;;;;;;5011214;28;20423;-65
2023/01/12 06:55:28;;;;;;;;;;;23.40;99.90;;;;;;5011130;28;19914;-65
2023/01/12 06:57:55;;;;;;;;;;;23.50;99.90;;;;;;5011866;28;19913;-63
2023/01/12 07:00:22;;;;;;;;;;;23.50;99.90;;;;;;5011706;28;20004;-64
2023/01/12 07:02:50;;;;;;;;;;;23.50;99.90;;;;;;5011405;28;20648;-64
2023/01/12 07:05:16;;;;;;;;;;;23.50;99.90;;;;;;5010897;28;19937;-64
2023/01/12 07:07:43;;;;;;;;;;;23.50;99.90;;;;;;5011458;28;19914;-64
2023/01/12 07:10:13;;;;;;;;;;;23.50;99.90;;;;;;5011158;28;19909;-66
2023/01/12 07:12:39;;;;;;;;;;;23.50;99.90;;;;;;5011284;28;19910;-64
2023/01/12 07:15:06;;;;;;;;;;;23.40;99.90;;;;;;5011361;28;20008;-63
2023/01/12 07:17:33;;;;;;;;;;;23.30;99.90;;;;;;5011508;28;19910;-65
2023/01/12 07:20:00;;;;;;;;;;;23.20;99.90;;;;;;5011437;28;19909;-67
2023/01/12 07:22:26;;;;;;;;;;;23.20;99.90;;;;;;5011226;28;19965;-66
2023/01/12 07:24:53;;;;;;;;;;;23.20;99.90;;;;;;5011119;28;19917;-64
2023/01/12 07:27:20;;;;;;;;;;;23.10;99.90;;;;;;5011223;28;19919;-65
2023/01/12 07:29:46;;;;;;;;;;;23.10;99.90;;;;;;5005313;28;20012;-64
2023/01/12 07:32:13;;;;;;;;;;;23.00;99.90;;;;;;5004357;28;19917;-63
2023/01/12 07:34:40;;;;;;;;;;;23.00;99.90;;;;;;5004952;28;19975;-68
2023/01/12 07:37:06;;;;;;;;;;;23.00;99.90;;;;;;5004082;28;19951;-64
2023/01/12 07:39:33;;;;;;;;;;;23.00;99.90;;;;;;5004254;28;19913;-64
2023/01/12 07:44:44;;;;;;;;;;;22.90;99.90;;;;;;5005378;28;20578;-64
2023/01/12 07:47:11;;;;;;;;;;;23.00;99.90;;;;;;5009240;28;19914;-65
2023/01/12 07:49:38;;;;;;;;;;;23.00;99.90;;;;;;5008597;28;19932;-70
2023/01/12 07:52:05;;;;;;;;;;;23.00;99.90;;;;;;5008762;28;19913;-68
2023/01/12 07:54:34;;;;;;;;;;;22.90;99.90;;;;;;5008708;28;19917;-64
2023/01/12 07:57:01;;;;;;;;;;;22.90;99.90;;;;;;5008256;28;19953;-64
2023/01/12 07:59:28;;;;;;;;;;;22.90;99.90;;;;;;5009165;28;19920;-66
2023/01/12 08:01:54;;;;;;;;;;;22.90;99.90;;;;;;5008037;28;20686;-64
2023/01/12 08:04:22;;;;;;;;;;;22.80;99.90;;;;;;5008475;28;19940;-67
2023/01/12 08:06:48;;;;;;;;;;;22.90;99.90;;;;;;5008146;28;19920;-68
2023/01/12 08:09:15;;;;;;;;;;;22.90;99.90;;;;;;5008031;28;19917;-65
2023/01/12 08:11:41;;;;;;;;;;;22.90;99.90;;;;;;5007138;28;19918;-65
2023/01/12 08:14:08;;;;;;;;;;;22.90;99.90;;;;;;5008494;28;19914;-64
2023/01/12 08:16:37;;;;;;;;;;;22.90;99.90;;;;;;5007907;28;19917;-70
2023/01/12 08:19:11;;;;;;;;;;;22.80;99.90;;;;;;5008135;28;19913;-65
2023/01/12 08:21:44;;;;;;;;;;;22.80;99.90;;;;;;5008151;28;20344;-65
2023/01/12 08:24:13;;;;;;;;;;;22.80;99.90;;;;;;5007841;28;20012;-65
2023/01/12 08:26:41;;;;;;;;;;;22.70;99.90;;;;;;5008081;28;19918;-73
2023/01/12 08:29:19;;;;;;;;;;;22.70;99.90;;;;;;5008355;28;20323;-70
2023/01/12 08:31:46;;;;;;;;;;;22.70;99.90;;;;;;5008278;28;19914;-69
2023/01/12 08:34:13;;;;;;;;;;;22.70;99.90;;;;;;5008161;28;19925;-63
2023/01/12 08:36:40;;;;;;;;;;;22.70;99.90;;;;;;5007288;28;20307;-63
2023/01/12 08:39:06;;;;;;;;;;;22.60;99.90;;;;;;5007629;28;19914;-67
2023/01/12 08:41:34;;;;;;;;;;;22.50;99.90;;;;;;5007076;28;19921;-62
2023/01/12 08:44:01;;;;;;;;;;;22.50;99.90;;;;;;5007756;28;19913;-68
2023/01/12 08:46:32;;;;;;;;;;;22.40;99.90;;;;;;5005728;28;20288;-63
2023/01/12 08:48:58;;;;;;;;;;;22.50;99.90;;;;;;5007717;28;19913;-63
2023/01/12 08:51:25;;;;;;;;;;;22.40;99.90;;;;;;5007348;28;19914;-70
2023/01/12 08:53:52;;;;;;;;;;;22.40;99.90;;;;;;5002458;28;19917;-63
2023/01/12 08:56:19;;;;;;;;;;;22.40;99.90;;;;;;5006826;28;19913;-64
2023/01/12 08:58:46;;;;;;;;;;;22.40;99.90;;;;;;5007585;28;19913;-63
2023/01/12 09:01:14;;;;;;;;;;;22.40;99.90;;;;;;5005595;28;19928;-66
2023/01/12 09:03:43;;;;;;;;;;;22.40;99.90;;;;;;5007902;28;20036;-64
2023/01/12 09:06:13;;;;;;;;;;;22.40;99.90;;;;;;4999809;28;20119;-64
2023/01/12 09:08:40;;;;;;;;;;;22.50;99.90;;;;;;5011496;28;19940;-63
2023/01/12 09:11:08;;;;;;;;;;;22.50;99.90;;;;;;5007846;28;19976;-64
2023/01/12 09:13:34;;;;;;;;;;;22.40;99.90;;;;;;5007311;28;19952;-64
2023/01/12 09:16:02;;;;;;;;;;;22.50;99.90;;;;;;5012220;28;19914;-65
2023/01/12 09:18:29;;;;;;;;;;;22.40;99.90;;;;;;5015994;28;19910;-64
2023/01/12 09:21:00;;;;;;;;;;;22.40;99.90;;;;;;5015918;28;20356;-64
2023/01/12 09:23:26;;;;;;;;;;;22.40;99.90;;;;;;5015781;28;19910;-64
2023/01/12 09:25:53;;;;;;;;;;;22.40;99.90;;;;;;5015569;28;20366;-65
2023/01/12 09:28:20;;;;;;;;;;;22.40;99.90;;;;;;5016025;28;19996;-66
2023/01/12 09:30:46;;;;;;;;;;;22.40;99.90;;;;;;5015860;28;19952;-64
2023/01/12 09:33:13;;;;;;;;;;;22.40;99.90;;;;;;5015753;28;19909;-64
2023/01/12 09:35:43;;;;;;;;;;;22.40;99.90;;;;;;5015602;28;19917;-64
2023/01/12 09:38:10;;;;;;;;;;;22.40;99.90;;;;;;5015605;28;19922;-65
2023/01/12 09:40:41;;;;;;;;;;;22.30;99.90;;;;;;5015631;28;19910;-66
2023/01/12 09:48:48;;;;;;;;;;;22.30;99.90;;;;;;4993601;28;19916;-71
2023/01/12 09:51:23;;;;;;;;;;;22.30;99.90;;;;;;5017210;28;20335;-66
2023/01/12 09:53:50;;;;;;;;;;;22.30;99.90;;;;;;5017430;28;19916;-65
2023/01/12 09:56:29;;;;;;;;;;;22.30;99.90;;;;;;5016284;28;19917;-65
2023/01/12 09:58:58;;;;;;;;;;;22.30;99.90;;;;;;5022556;28;19913;-69
2023/01/12 10:01:25;;;;;;;;;;;22.20;99.90;;;;;;5017425;28;19913;-71
2023/01/12 10:03:52;;;;;;;;;;;22.20;99.90;;;;;;5017060;28;19957;-68
2023/01/12 10:06:19;;;;;;;;;;;22.20;99.90;;;;;;5017397;28;20380;-72
2023/01/12 10:08:48;;;;;;;;;;;22.20;99.90;;;;;;5018536;28;19917;-75
2023/01/12 10:11:21;;;;;;;;;;;22.20;99.90;;;;;;5020214;28;19909;-78
2023/01/12 10:13:58;;;;;;;;;;;22.20;99.90;;;;;;5019261;28;19968;-68
2023/01/12 10:16:28;;;;;;;;;;;22.30;99.90;;;;;;5023484;28;19910;-65
2023/01/12 10:18:58;;;;;;;;;;;22.20;99.90;;;;;;5024923;28;19920;-66
2023/01/12 10:21:25;;;;;;;;;;;22.20;99.90;;;;;;5027257;28;19921;-69
2023/01/12 10:23:53;;;;;;;;;;;22.20;99.90;;;;;;5028422;28;19914;-65
2023/01/12 10:26:21;;;;;;;;;;;22.20;99.90;;;;;;5021177;28;19913;-71
2023/01/12 10:28:53;;;;;;;;;;;22.20;99.90;;;;;;5015843;28;19924;-70
2023/01/12 10:31:24;;;;;;;;;;;22.30;99.90;;;;;;5015260;28;19989;-67
2023/01/12 10:34:05;;;;;;;;;;;22.30;99.90;;;;;;5011738;28;20592;-69
2023/01/12 10:36:36;;;;;;;;;;;22.30;99.90;;;;;;5011205;28;19925;-67
2023/01/12 10:39:04;;;;;;;;;;;22.20;99.90;;;;;;5012052;28;19967;-71
2023/01/12 10:41:31;;;;;;;;;;;22.20;99.90;;;;;;5011279;28;19922;-75
2023/01/12 10:43:58;;;;;;;;;;;22.10;99.90;;;;;;5010310;28;19921;-71
2023/01/12 10:46:27;;;;;;;;;;;22.10;99.90;;;;;;5009278;28;19913;-74
2023/01/12 10:48:55;;;;;;;;;;;22.10;99.90;;;;;;5007408;28;20638;-76
2023/01/12 10:51:23;;;;;;;;;;;22.10;99.90;;;;;;5007895;28;19917;-71
2023/01/12 10:54:08;;;;;;;;;;;22.10;99.90;;;;;;5006606;28;19913;-73
2023/01/12 10:56:57;;;;;;;;;;;22.00;99.90;;;;;;5007477;28;19964;-74
2023/01/12 10:59:27;;;;;;;;;;;22.00;99.90;;;;;;5001486;28;19999;-70
2023/01/12 11:02:10;;;;;;;;;;;22.10;99.90;;;;;;5006814;28;19967;-73
2023/01/12 11:04:38;;;;;;;;;;;22.10;99.90;;;;;;5006489;28;19913;-75
2023/01/12 11:07:11;;;;;;;;;;;22.10;99.90;;;;;;5006419;28;19913;-66
2023/01/12 11:09:38;;;;;;;;;;;22.10;99.90;;;;;;5005988;28;19921;-70
2023/01/12 11:12:20;;;;;;;;;;;22.10;99.90;;;;;;5006938;28;19914;-74
2023/01/12 11:15:07;;;;;;;;;;;22.10;99.90;;;;;;5006738;28;20050;-67
2023/01/12 11:17:55;;;;;;;;;;;22.10;99.90;;;;;;4998912;28;19913;-76
2023/01/12 11:20:30;;;;;;;;;;;22.10;99.90;;;;;;5005725;28;19934;-76
2023/01/12 11:23:00;;;;;;;;;;;22.00;99.90;;;;;;5008863;28;20376;-75
2023/01/12 11:25:29;;;;;;;;;;;22.00;99.90;;;;;;5006329;28;19960;-72
2023/01/12 11:27:58;;;;;;;;;;;22.10;99.90;;;;;;5005476;28;19953;-75
2023/01/12 11:30:32;;;;;;;;;;;22.00;99.90;;;;;;5005275;28;19983;-71
2023/01/12 11:33:03;;;;;;;;;;;22.10;99.90;;;;;;5005270;28;19913;-70
2023/01/12 11:35:37;;;;;;;;;;;22.10;99.90;;;;;;5005452;28;20537;-71
2023/01/12 11:38:09;;;;;;;;;;;22.10;99.90;;;;;;5007218;28;20016;-72
2023/01/12 11:40:36;;;;;;;;;;;22.10;99.90;;;;;;5013610;28;19909;-72
2023/01/12 11:46:14;;;;;;;;;;;22.10;99.90;;;;;;5010850;28;19932;-73
2023/01/12 11:48:45;;;;;;;;;;;22.10;99.90;;;;;;5013627;28;19910;-77
2023/01/12 11:51:12;;;;;;;;;;;22.10;99.90;;;;;;5012458;28;19909;-72
2023/01/12 11:53:39;;;;;;;;;;;22.10;99.90;;;;;;5013203;28;20370;-74
2023/01/12 11:56:09;;;;;;;;;;;22.10;99.90;;;;;;5012991;28;19996;-72
2023/01/12 11:58:45;;;;;;;;;;;22.10;99.90;;;;;;5013058;28;19914;-69
2023/01/12 12:01:25;;;;;;;;;;;22.10;99.90;;;;;;5013353;28;19928;-68
2023/01/12 12:04:00;;;;;;;;;;;22.10;99.90;;;;;;5013431;28;19964;-64
2023/01/12 12:06:26;;;;;;;;;;;22.00;99.90;;;;;;5012890;28;19909;-67
2023/01/12 12:09:11;;;;;;;;;;;22.00;99.90;;;;;;5013267;28;19909;-65
2023/01/12 12:11:41;;;;;;;;;;;22.00;99.90;;;;;;5013289;28;20268;-72
2023/01/12 12:14:27;;;;;;;;;;;21.90;99.90;;;;;;5013210;28;19917;-74
2023/01/12 12:17:09;;;;;;;;;;;22.00;99.90;;;;;;5013162;28;19909;-75
2023/01/12 12:19:51;;;;;;;;;;;22.00;99.90;;;;;;5012987;28;19996;-77
2023/01/12 12:22:24;;;;;;;;;;;22.00;99.90;;;;;;5013174;28;20352;-75
2023/01/12 12:25:06;;;;;;;;;;;22.00;99.90;;;;;;5012699;28;19956;-77
2023/01/12 12:27:51;;;;;;;;;;;22.00;99.90;;;;;;5013103;28;19964;-76
2023/01/12 12:30:38;;;;;;;;;;;22.00;99.90;;;;;;5013094;28;19928;-71
2023/01/12 12:33:08;;;;;;;;;;;22.00;99.90;;;;;;5016753;28;19917;-74
2023/01/12 12:35:35;;;;;;;;;;;22.00;99.90;;;;;;5016207;28;19909;-77
2023/01/12 12:38:01;;;;;;;;;;;22.00;99.90;;;;;;5016465;28;20264;-75
2023/01/12 12:46:34;;;;;;;;;;;22.00;99.90;;;;;;5016668;28;19916;-70
2023/01/12 12:49:01;;;;;;;;;;;22.00;99.90;;;;;;5016581;28;19909;-77
2023/01/12 12:51:29;;;;;;;;;;;22.00;99.90;;;;;;5016142;28;20349;-74
2023/01/12 12:53:57;;;;;;;;;;;21.90;99.90;;;;;;5016014;28;19909;-75
2023/01/12 12:56:24;;;;;;;;;;;21.90;99.90;;;;;;5016159;28;20312;-77
2023/01/12 12:58:52;;;;;;;;;;;21.90;99.90;;;;;;5016375;28;19913;-73
2023/01/12 13:01:22;;;;;;;;;;;21.90;99.90;;;;;;5016057;28;19921;-77
2023/01/12 13:03:51;;;;;;;;;;;21.90;99.90;;;;;;5016089;28;19937;-78
2023/01/12 13:06:18;;;;;;;;;;;21.90;99.90;;;;;;5015642;28;19979;-78
2023/01/12 13:08:45;;;;;;;;;;;21.90;99.90;;;;;;5015938;28;19963;-78
2023/01/12 13:11:13;;;;;;;;;;;22.00;99.90;;;;;;5016123;28;19913;-75
2023/01/12 13:13:56;;;;;;;;;;;22.00;99.90;;;;;;5016092;28;19909;-77
2023/01/12 13:16:28;;;;;;;;;;;22.00;99.90;;;;;;5015709;28;19909;-79
2023/01/12 13:18:55;;;;;;;;;;;21.90;99.90;;;;;;5015818;28;19970;-74
2023/01/12 13:21:28;;;;;;;;;;;21.90;99.90;;;;;;5015419;28;19962;-76
2023/01/12 13:24:15;;;;;;;;;;;21.90;99.90;;;;;;5015729;28;19920;-74
2023/01/12 13:26:42;;;;;;;;;;;21.90;99.90;;;;;;5011746;28;20427;-74
2023/01/12 13:29:27;;;;;;;;;;;21.90;99.90;;;;;;5015657;28;19916;-76
2023/01/12 13:31:57;;;;;;;;;;;21.80;99.90;;;;;;5015656;28;19909;-73
2023/01/12 13:34:36;;;;;;;;;;;21.90;99.90;;;;;;5015261;28;20362;-78
2023/01/12 13:37:08;;;;;;;;;;;21.90;99.90;;;;;;5015307;28;19924;-79
2023/01/12 13:39:37;;;;;;;;;;;21.90;99.90;;;;;;5015179;28;19913;-78
2023/01/12 13:44:51;;;;;;;;;;;21.90;99.90;;;;;;5015441;28;19955;-78
2023/01/12 13:47:23;;;;;;;;;;;22.00;99.90;;;;;;5015069;28;20004;-78
2023/01/12 13:49:57;;;;;;;;;;;22.00;99.90;;;;;;5015429;28;19916;-77
2023/01/12 13:52:31;;;;;;;;;;;21.90;99.90;;;;;;5015112;28;19909;-75
2023/01/12 13:54:58;;;;;;;;;;;21.90;99.90;;;;;;5014912;28;20257;-72
2023/01/12 13:57:25;;;;;;;;;;;21.90;99.90;;;;;;5015072;28;19910;-78
2023/01/12 14:00:18;;;;;;;;;;;21.90;99.90;;;;;;5015116;28;19920;-78
2023/01/12 14:02:44;;;;;;;;;;;21.90;99.90;;;;;;5014117;28;20095;-74
2023/01/12 14:05:24;;;;;;;;;;;21.80;99.90;;;;;;5014692;28;19921;-67
2023/01/12 14:08:09;;;;;;;;;;;21.90;99.90;;;;;;5014927;28;19921;-77
2023/01/12 14:10:44;;;;;;;;;;;21.90;99.90;;;;;;5015123;28;20356;-77
2023/01/12 14:13:20;;;;;;;;;;;21.90;99.90;;;;;;5014910;28;19913;-78
2023/01/12 14:18:42;;;;;;;;;;;21.80;99.90;;;;;;5015053;28;20287;-78
2023/01/12 14:21:27;;;;;;;;;;;21.70;99.90;;;;;;5014668;28;19926;-77
2023/01/12 14:24:12;;;;;;;;;;;21.70;99.90;;;;;;5014791;28;19910;-77
2023/01/12 14:26:38;;;;;;;;;;;21.70;99.90;;;;;;5014650;28;20364;-75
2023/01/12 14:29:07;;;;;;;;;;;21.70;99.90;;;;;;5014597;28;20000;-77
2023/01/12 14:31:38;;;;;;;;;;;21.60;99.90;;;;;;5014272;28;19963;-75
2023/01/12 14:34:06;;;;;;;;;;;21.60;99.90;;;;;;5014092;28;20031;-77
2023/01/12 14:36:42;;;;;;;;;;;21.50;99.90;;;;;;5014405;28;19960;-78
2023/01/12 14:39:19;;;;;;;;;;;21.50;99.90;;;;;;5014251;28;19909;-78
2023/01/12 14:47:38;;;;;;;;;;;21.50;99.90;;;;;;5014203;28;19956;-77
2023/01/12 14:50:22;;;;;;;;;;;21.40;99.90;;;;;;5014504;28;19910;-75
2023/01/12 14:52:49;;;;;;;;;;;21.30;99.90;;;;;;5014035;28;19910;-69
2023/01/12 14:55:25;;;;;;;;;;;21.20;99.90;;;;;;5013283;28;20331;-72
2023/01/12 14:57:54;;;;;;;;;;;21.20;99.90;;;;;;5014080;28;19913;-74
2023/01/12 15:00:21;;;;;;;;;;;21.20;99.90;;;;;;5014013;28;19913;-69
2023/01/12 15:02:53;;;;;;;;;;;21.20;99.90;;;;;;5013867;28;19957;-70
2023/01/12 15:05:24;;;;;;;;;;;21.20;99.90;;;;;;5013576;28;19993;-72
2023/01/12 15:08:01;;;;;;;;;;;21.20;99.90;;;;;;5013780;28;20344;-78
2023/01/12 15:10:33;;;;;;;;;;;21.10;99.90;;;;;;5014048;28;19952;-76
2023/01/12 15:13:18;;;;;;;;;;;21.10;99.90;;;;;;5013815;28;19910;-72
2023/01/12 15:26:44;;;;;;;;;;;21.20;99.90;;;;;;5014134;28;19916;-77
2023/01/12 15:29:11;;;;;;;;;;;21.20;99.90;;;;;;5013651;28;19913;-79
2023/01/12 15:31:38;;;;;;;;;;;21.10;99.90;;;;;;5013588;28;19946;-77